Colmar, Luxembourg
Current Conditions -  °F | °C
As of 11:50 AM on Friday 31 Oct 2014 (Local Time) from ELLX Reporting Station
Clear Clear  
Wind Chill: 55°   Ceiling: Unl
Heat Index: 55°   Visibility: 2.1mi
Dew Point: 52°   Wind: 5mph
Humidity: 88%   Direction: 130°SE
Pressure: 30.27"   Gusts: NA
Location:  49.81°N, 6.1°E
Report Text: ELLX 311050Z 13004KT 110V210 3500 NSC 13/11 Q1025 BECMG 5000
Loading
Personal Weather Stations






























Interactive Weather Map
Tropical Storm Tracking
New forecast layout! Learn more

10-Day Weather Forecast

Advertisements
Track Severe Weather on mobile